Time;durP1;ratioP1;P1;durP2;ratioP2;P2;SDS_P1;SDS_P2;PMS_P1;PMS_P2;Temp;Humidity;BMP_temperature;BMP_pressure;BME280_temperature;BME280_humidity;BME280_pressure;Samples;Min_cycle;Max_cycle;Signal;HPM_P1;HPM_P2
2021/08/02 00:01:47;;;;;;;3.58;1.45;;;16.60;76.20;;;;;;5049924;28;19928;-70
2021/08/02 00:04:38;;;;;;;2.80;1.30;;;16.50;76.60;;;;;;5047200;28;20032;-70
2021/08/02 00:07:23;;;;;;;2.55;1.30;;;16.50;76.50;;;;;;5047360;28;20039;-70
2021/08/02 00:10:11;;;;;;;2.42;1.30;;;16.50;76.40;;;;;;5047222;28;20091;-70
2021/08/02 00:13:01;;;;;;;2.28;1.20;;;16.40;76.70;;;;;;5047345;28;20044;-70
2021/08/02 00:15:45;;;;;;;2.72;1.83;;;16.40;76.80;;;;;;5047024;28;20220;-70
2021/08/02 00:18:29;;;;;;;1.77;1.17;;;16.50;76.70;;;;;;5046934;28;20403;-69
2021/08/02 00:21:13;;;;;;;2.10;1.30;;;16.50;76.50;;;;;;5046894;28;20060;-68
2021/08/02 00:23:58;;;;;;;3.08;1.40;;;16.50;76.40;;;;;;5046994;28;20088;-70
2021/08/02 00:26:42;;;;;;;2.50;1.30;;;16.50;76.30;;;;;;5046934;28;20138;-70
2021/08/02 00:29:28;;;;;;;2.00;1.30;;;16.50;76.30;;;;;;5032614;28;20028;-70
2021/08/02 00:32:13;;;;;;;1.88;1.27;;;16.50;76.20;;;;;;5045629;28;20039;-70
2021/08/02 00:34:57;;;;;;;4.25;2.15;;;16.40;76.10;;;;;;5032324;28;20217;-70
2021/08/02 00:38:00;;;;;;;2.40;1.38;;;16.40;76.20;;;;;;5046547;28;20165;-70
2021/08/02 00:41:12;;;;;;;2.08;1.35;;;16.50;76.00;;;;;;5046897;28;20036;-70
2021/08/02 00:44:25;;;;;;;2.35;1.30;;;16.50;76.10;;;;;;5046383;28;20029;-70
2021/08/02 00:47:12;;;;;;;2.10;1.50;;;16.40;75.50;;;;;;5034275;28;20040;-70
2021/08/02 00:50:09;;;;;;;4.47;1.00;;;16.50;75.70;;;;;;5046320;28;20064;-70
2021/08/02 00:53:24;;;;;;;2.13;1.33;;;16.40;75.60;;;;;;5045770;28;20039;-70
2021/08/02 00:56:08;;;;;;;2.35;1.15;;;16.40;75.50;;;;;;5046201;28;20140;-70
2021/08/02 00:58:52;;;;;;;2.63;1.30;;;16.40;75.50;;;;;;5046150;28;20272;-70
2021/08/02 01:01:37;;;;;;;4.50;1.48;;;16.40;75.60;;;;;;5045343;28;20355;-70
2021/08/02 01:04:23;;;;;;;2.30;1.30;;;16.30;75.50;;;;;;5046093;28;20237;-70
2021/08/02 01:07:11;;;;;;;2.28;1.27;;;16.40;75.50;;;;;;5045971;28;20064;-70
2021/08/02 01:09:55;;;;;;;3.83;1.48;;;16.40;75.50;;;;;;5045988;28;20067;-70
2021/08/02 01:12:42;;;;;;;5.50;1.40;;;16.30;75.60;;;;;;5031082;28;20071;-70
2021/08/02 01:15:26;;;;;;;2.65;1.48;;;16.30;75.80;;;;;;5044867;28;20033;-70
2021/08/02 01:18:10;;;;;;;2.53;1.40;;;16.40;75.60;;;;;;5046283;28;20025;-70
2021/08/02 01:20:54;;;;;;;1.83;1.42;;;16.40;75.60;;;;;;5044894;28;20075;-70
2021/08/02 01:23:38;;;;;;;2.20;1.27;;;16.30;75.60;;;;;;5045682;28;20113;-70
2021/08/02 01:26:44;;;;;;;2.75;1.20;;;16.40;75.50;;;;;;5046105;28;20089;-70
2021/08/02 01:30:20;;;;;;;2.85;1.60;;;16.40;75.40;;;;;;5046106;28;20101;-70
2021/08/02 01:33:04;;;;;;;2.08;1.35;;;16.30;75.70;;;;;;5028235;28;20048;-70
2021/08/02 01:35:48;;;;;;;2.38;1.40;;;16.30;75.60;;;;;;5044691;28;20128;-70
2021/08/02 01:38:33;;;;;;;2.15;1.30;;;16.20;75.60;;;;;;5046027;28;20132;-70
2021/08/02 01:41:17;;;;;;;2.30;1.33;;;16.20;75.60;;;;;;5045785;28;20028;-70
2021/08/02 01:44:01;;;;;;;3.08;1.45;;;16.10;75.50;;;;;;5045340;28;20036;-70
2021/08/02 01:47:12;;;;;;;5.60;1.50;;;16.10;75.50;;;;;;5045575;28;20044;-70
2021/08/02 01:50:05;;;;;;;1.92;1.20;;;16.10;75.60;;;;;;5045354;28;20063;-70
2021/08/02 01:53:18;;;;;;;2.60;1.67;;;16.20;75.40;;;;;;5044110;28;20221;-70
2021/08/02 01:56:06;;;;;;;2.10;1.40;;;16.20;75.70;;;;;;5031819;28;20071;-70
2021/08/02 01:58:58;;;;;;;2.47;1.33;;;16.20;75.40;;;;;;5044070;28;20040;-70
2021/08/02 02:01:49;;;;;;;2.40;1.50;;;16.10;75.50;;;;;;5031096;28;20128;-70
2021/08/02 02:04:54;;;;;;;4.97;1.55;;;16.10;75.30;;;;;;5045171;28;20032;-70
2021/08/02 02:08:07;;;;;;;2.75;1.50;;;16.10;75.60;;;;;;5044232;28;20387;-70
2021/08/02 02:10:55;;;;;;;4.57;1.73;;;16.10;75.50;;;;;;5044121;28;20036;-70
2021/08/02 02:13:44;;;;;;;2.47;1.38;;;16.20;75.40;;;;;;5044144;28;20037;-70
2021/08/02 02:16:29;;;;;;;4.00;1.40;;;16.20;75.30;;;;;;5044949;28;20037;-70
2021/08/02 02:19:14;;;;;;;4.15;1.60;;;16.20;75.30;;;;;;5043980;28;20383;-70
2021/08/02 02:21:58;;;;;;;3.03;1.45;;;16.20;75.30;;;;;;5043837;28;20335;-70
2021/08/02 02:24:42;;;;;;;2.67;1.40;;;16.30;75.00;;;;;;5044385;28;20040;-70
2021/08/02 02:27:26;;;;;;;2.03;1.40;;;16.30;75.00;;;;;;5043469;28;20124;-69
2021/08/02 02:30:10;;;;;;;2.70;1.30;;;16.30;75.00;;;;;;5044871;28;20052;-70
2021/08/02 02:32:55;;;;;;;5.97;1.60;;;16.30;75.00;;;;;;5043500;28;20277;-70
2021/08/02 02:35:40;;;;;;;2.45;1.45;;;16.30;74.90;;;;;;5043599;28;20036;-70
2021/08/02 02:38:24;;;;;;;4.43;1.60;;;16.20;75.10;;;;;;5044315;28;20097;-70
2021/08/02 02:41:09;;;;;;;2.20;1.38;;;16.30;74.90;;;;;;5043690;28;20032;-70
2021/08/02 02:43:53;;;;;;;2.22;1.50;;;16.30;74.70;;;;;;5044191;28;20036;-70
2021/08/02 02:46:37;;;;;;;4.03;1.70;;;16.20;74.60;;;;;;5044144;28;20033;-70
2021/08/02 02:49:21;;;;;;;2.90;1.63;;;16.20;74.60;;;;;;5043183;28;20091;-70
2021/08/02 02:52:06;;;;;;;3.85;1.70;;;16.20;74.70;;;;;;5043971;28;20390;-70
2021/08/02 02:54:50;;;;;;;2.75;1.42;;;16.20;74.90;;;;;;5043146;28;20036;-70
2021/08/02 02:57:37;;;;;;;2.70;1.50;;;16.20;75.00;;;;;;5043041;28;20383;-70
2021/08/02 03:00:22;;;;;;;4.53;1.67;;;16.20;74.90;;;;;;5043947;28;20393;-69
2021/08/02 03:03:06;;;;;;;3.55;1.48;;;16.20;75.10;;;;;;5044320;28;20055;-70
2021/08/02 03:05:51;;;;;;;3.25;1.80;;;16.10;75.20;;;;;;5029182;28;20033;-70
2021/08/02 03:08:35;;;;;;;3.13;1.70;;;16.10;75.30;;;;;;5029551;28;20358;-70
2021/08/02 03:11:20;;;;;;;3.75;1.70;;;16.10;75.50;;;;;;5043218;28;20052;-70
2021/08/02 03:14:04;;;;;;;3.35;1.70;;;16.00;75.60;;;;;;5043706;28;20367;-70
2021/08/02 03:16:49;;;;;;;3.58;1.90;;;16.00;75.60;;;;;;5043679;28;20088;-70
2021/08/02 03:19:33;;;;;;;4.75;1.73;;;16.10;75.50;;;;;;5043891;28;20085;-70
2021/08/02 03:22:49;;;;;;;4.15;1.90;;;16.10;75.70;;;;;;5043630;28;20031;-70
2021/08/02 03:25:48;;;;;;;2.95;1.90;;;16.10;75.80;;;;;;5036090;28;20240;-70
2021/08/02 03:28:43;;;;;;;5.72;2.40;;;16.10;76.20;;;;;;5043800;28;20032;-70
2021/08/02 03:31:31;;;;;;;5.00;2.05;;;16.20;76.20;;;;;;5042840;28;20097;-70
2021/08/02 03:34:19;;;;;;;3.63;2.10;;;16.20;76.10;;;;;;5042736;28;20025;-70
2021/08/02 03:37:08;;;;;;;3.17;2.10;;;16.10;76.00;;;;;;5042689;28;20040;-70
2021/08/02 03:39:52;;;;;;;3.15;2.25;;;16.20;75.90;;;;;;5042659;28;20252;-69
2021/08/02 03:42:38;;;;;;;4.35;2.33;;;16.10;76.00;;;;;;5028629;28;20209;-70
2021/08/02 03:45:22;;;;;;;4.25;2.40;;;16.20;76.00;;;;;;5043355;28;20347;-69
2021/08/02 03:48:06;;;;;;;3.40;2.15;;;16.20;76.00;;;;;;5043876;28;20024;-70
2021/08/02 03:50:50;;;;;;;6.55;2.25;;;16.20;75.80;;;;;;5043393;28;20105;-70
2021/08/02 03:53:41;;;;;;;3.80;2.40;;;16.10;75.90;;;;;;5042884;28;20071;-70
2021/08/02 03:56:26;;;;;;;;;;;16.10;76.00;;;;;;5044223;28;20028;-70
2021/08/02 03:59:10;;;;;;;3.47;2.20;;;16.10;76.20;;;;;;5044113;28;19955;-70
2021/08/02 04:01:54;;;;;;;5.22;2.45;;;16.00;76.20;;;;;;5043612;28;20044;-70
2021/08/02 04:04:38;;;;;;;4.03;2.20;;;16.10;76.10;;;;;;5043632;28;20037;-70
2021/08/02 04:07:23;;;;;;;3.75;2.28;;;16.10;76.20;;;;;;5043474;28;20044;-70
2021/08/02 04:10:08;;;;;;;3.63;2.20;;;16.00;76.30;;;;;;5043344;28;20036;-70
2021/08/02 04:12:52;;;;;;;5.97;2.45;;;16.00;76.30;;;;;;5043239;28;20099;-70
2021/08/02 04:15:37;;;;;;;3.60;2.28;;;16.10;76.30;;;;;;5043202;28;20040;-70
2021/08/02 04:18:21;;;;;;;3.88;2.50;;;16.10;76.30;;;;;;5043117;28;20398;-70
2021/08/02 04:21:05;;;;;;;4.95;2.60;;;16.20;76.10;;;;;;5042646;28;20020;-70
2021/08/02 04:23:50;;;;;;;5.18;2.60;;;16.20;76.00;;;;;;5043034;28;20103;-70
2021/08/02 04:26:34;;;;;;;3.42;2.30;;;16.20;76.20;;;;;;5043825;28;20052;-70
2021/08/02 04:29:18;;;;;;;3.83;2.67;;;16.20;76.30;;;;;;5043692;28;20063;-70
2021/08/02 04:32:03;;;;;;;4.35;2.38;;;16.30;76.10;;;;;;5043098;28;20041;-70
2021/08/02 04:34:47;;;;;;;3.42;2.22;;;16.30;76.20;;;;;;5043299;28;20064;-70
2021/08/02 04:37:32;;;;;;;4.20;2.67;;;16.20;76.20;;;;;;5046519;28;20037;-70
2021/08/02 04:40:16;;;;;;;4.38;2.50;;;16.20;76.30;;;;;;5047040;28;20031;-70
2021/08/02 04:43:00;;;;;;;5.30;2.72;;;16.20;76.30;;;;;;5046458;28;20067;-70
2021/08/02 04:45:44;;;;;;;4.07;2.20;;;16.20;76.40;;;;;;5046797;28;20020;-70
2021/08/02 04:48:29;;;;;;;3.53;2.65;;;16.20;76.40;;;;;;5046325;28;20213;-69
2021/08/02 04:51:13;;;;;;;4.75;2.40;;;16.20;76.40;;;;;;5046230;28;20056;-69
2021/08/02 04:53:57;;;;;;;4.63;2.78;;;16.20;76.30;;;;;;5047256;28;20029;-70
2021/08/02 04:56:41;;;;;;;4.60;2.55;;;16.20;76.20;;;;;;5046343;28;20075;-70
2021/08/02 04:59:26;;;;;;;4.95;2.80;;;16.20;76.10;;;;;;5046654;28;20036;-70
2021/08/02 05:02:10;;;;;;;7.57;2.85;;;16.30;75.80;;;;;;5046074;28;20039;-70
2021/08/02 05:04:54;;;;;;;4.25;2.70;;;16.30;75.70;;;;;;5046058;28;20040;-70
2021/08/02 05:07:39;;;;;;;5.78;2.55;;;16.30;75.70;;;;;;5045953;28;20035;-70
2021/08/02 05:10:23;;;;;;;5.25;2.83;;;16.30;75.80;;;;;;5045966;28;20052;-70
2021/08/02 05:13:07;;;;;;;3.17;2.30;;;16.30;75.70;;;;;;5045865;28;20040;-70
2021/08/02 05:15:51;;;;;;;4.95;2.72;;;16.30;75.80;;;;;;5045682;28;20029;-70
2021/08/02 05:18:36;;;;;;;5.57;2.70;;;16.30;75.60;;;;;;5045712;28;20282;-70
2021/08/02 05:21:20;;;;;;;4.70;2.80;;;16.30;75.90;;;;;;5045701;28;20028;-70
2021/08/02 05:24:05;;;;;;;4.25;3.00;;;16.30;76.00;;;;;;5045987;28;20284;-70
2021/08/02 05:26:49;;;;;;;10.10;3.05;;;16.30;76.10;;;;;;5045852;28;20071;-70
2021/08/02 05:29:33;;;;;;;5.22;3.10;;;16.30;76.10;;;;;;5045925;28;20112;-70
2021/08/02 05:32:18;;;;;;;4.75;2.70;;;16.30;76.20;;;;;;5045659;28;20028;-70
2021/08/02 05:35:02;;;;;;;3.95;2.95;;;16.40;76.40;;;;;;5045693;28;20080;-70
2021/08/02 05:37:46;;;;;;;6.80;3.00;;;16.30;76.40;;;;;;5045330;28;20063;-70
2021/08/02 05:40:31;;;;;;;5.20;2.80;;;16.30;76.60;;;;;;5045404;28;20047;-70
2021/08/02 05:43:15;;;;;;;5.75;3.08;;;16.30;76.80;;;;;;5045299;28;20351;-70
2021/08/02 05:45:59;;;;;;;5.20;3.10;;;16.30;76.60;;;;;;5044759;28;20041;-70
2021/08/02 05:48:44;;;;;;;4.45;3.00;;;16.30;76.50;;;;;;5045135;28;20056;-70
2021/08/02 05:51:28;;;;;;;7.95;3.15;;;16.30;76.60;;;;;;5044134;28;20023;-70
2021/08/02 05:54:12;;;;;;;6.47;3.10;;;16.30;76.40;;;;;;5045594;28;20068;-70
2021/08/02 05:56:56;;;;;;;4.93;3.20;;;16.40;76.50;;;;;;5045230;28;20036;-70
2021/08/02 05:59:40;;;;;;;7.07;3.22;;;16.50;76.50;;;;;;5045218;28;20035;-70
2021/08/02 06:02:25;;;;;;;6.13;3.40;;;16.50;76.20;;;;;;5045489;28;20064;-70
2021/08/02 06:05:09;;;;;;;4.88;2.83;;;16.50;76.20;;;;;;5044924;28;20228;-70
2021/08/02 06:07:53;;;;;;;4.85;3.00;;;16.50;75.90;;;;;;5045317;28;20075;-70
2021/08/02 06:10:38;;;;;;;4.70;2.80;;;16.60;76.00;;;;;;5045277;28;20256;-70
2021/08/02 06:13:22;;;;;;;5.15;3.15;;;16.60;76.20;;;;;;5045072;28;20371;-70
2021/08/02 06:16:06;;;;;;;5.35;2.90;;;16.60;76.00;;;;;;5044975;28;20048;-70
2021/08/02 06:18:51;;;;;;;6.90;3.65;;;16.60;75.90;;;;;;5044792;28;20032;-70
2021/08/02 06:21:35;;;;;;;5.15;3.00;;;16.70;76.30;;;;;;5044564;28;20125;-70
2021/08/02 06:24:19;;;;;;;4.53;3.00;;;16.70;76.30;;;;;;5044260;28;20064;-70
2021/08/02 06:27:04;;;;;;;5.57;2.95;;;16.80;76.10;;;;;;5044893;28;20137;-70
2021/08/02 06:29:48;;;;;;;6.30;3.00;;;16.80;75.90;;;;;;5044627;28;20264;-70
2021/08/02 06:32:32;;;;;;;5.30;2.88;;;16.80;75.90;;;;;;5044739;28;20068;-70
2021/08/02 06:35:17;;;;;;;6.30;2.88;;;16.80;75.70;;;;;;5044789;28;20108;-71
2021/08/02 06:38:01;;;;;;;6.05;2.90;;;16.90;75.60;;;;;;5044556;28;20040;-71
2021/08/02 06:40:45;;;;;;;7.55;2.90;;;16.90;75.30;;;;;;5043440;28;20044;-71
2021/08/02 06:43:30;;;;;;;5.95;3.15;;;17.00;75.30;;;;;;5044111;28;20036;-71
2021/08/02 06:46:14;;;;;;;7.93;2.92;;;17.10;75.30;;;;;;5044266;28;20028;-71
2021/08/02 06:48:58;;;;;;;5.82;3.00;;;17.20;74.80;;;;;;5044072;28;20033;-71
2021/08/02 06:51:43;;;;;;;4.07;2.47;;;17.30;75.00;;;;;;5044058;28;20040;-71
2021/08/02 06:54:27;;;;;;;5.88;2.70;;;17.20;74.50;;;;;;5043936;28;20052;-71
2021/08/02 06:57:11;;;;;;;4.95;3.00;;;17.30;74.70;;;;;;5044395;28;20028;-71
2021/08/02 06:59:57;;;;;;;4.00;2.38;;;17.30;74.80;;;;;;5043571;28;20343;-71
2021/08/02 07:02:41;;;;;;;4.28;2.55;;;17.40;74.60;;;;;;5043139;28;20036;-71
2021/08/02 07:05:27;;;;;;;4.93;2.60;;;17.50;74.20;;;;;;5043419;28;20076;-71
2021/08/02 07:08:11;;;;;;;6.60;2.67;;;17.50;74.00;;;;;;5043805;28;20145;-71
2021/08/02 07:10:55;;;;;;;5.10;2.80;;;17.70;74.10;;;;;;5044044;28;20029;-71
2021/08/02 07:13:40;;;;;;;7.57;2.80;;;17.80;74.10;;;;;;5043889;28;20076;-71
2021/08/02 07:16:24;;;;;;;4.63;2.88;;;17.80;73.80;;;;;;5043665;28;20044;-71
2021/08/02 07:19:08;;;;;;;5.05;3.13;;;17.90;73.90;;;;;;5043550;28;20136;-71
2021/08/02 07:21:53;;;;;;;7.57;3.30;;;18.00;74.20;;;;;;5043734;28;20359;-71
2021/08/02 07:24:37;;;;;;;4.68;2.75;;;18.10;74.20;;;;;;5043428;28;20071;-71
2021/08/02 07:27:21;;;;;;;10.70;2.90;;;18.10;74.10;;;;;;5043513;28;20059;-71
2021/08/02 07:30:07;;;;;;;5.60;3.10;;;18.20;73.20;;;;;;5044010;28;20021;-72
2021/08/02 07:32:51;;;;;;;6.53;2.70;;;18.30;73.20;;;;;;5043663;28;20072;-71
2021/08/02 07:35:35;;;;;;;7.10;2.72;;;18.40;73.50;;;;;;5044066;28;20079;-71
2021/08/02 07:38:20;;;;;;;5.60;2.42;;;18.40;73.00;;;;;;5043483;28;20232;-71
2021/08/02 07:41:04;;;;;;;4.13;2.10;;;18.50;72.60;;;;;;5042510;28;20044;-71
2021/08/02 07:43:48;;;;;;;4.80;2.53;;;18.50;72.20;;;;;;5043453;28;20071;-72
2021/08/02 07:46:32;;;;;;;3.47;2.40;;;18.70;72.10;;;;;;5043612;28;20075;-72
2021/08/02 07:49:16;;;;;;;4.32;2.75;;;18.80;71.20;;;;;;5043486;28;20064;-72
2021/08/02 07:52:01;;;;;;;3.95;2.20;;;19.00;71.10;;;;;;5043959;28;20040;-72
2021/08/02 07:54:45;;;;;;;3.92;2.40;;;19.10;71.00;;;;;;5043392;28;20063;-72
2021/08/02 07:57:33;;;;;;;4.18;2.28;;;19.20;70.50;;;;;;5043224;28;20101;-72
2021/08/02 08:00:17;;;;;;;3.80;2.20;;;19.30;69.90;;;;;;5043288;28;20083;-71
2021/08/02 08:03:01;;;;;;;3.08;2.00;;;19.40;69.30;;;;;;5043738;28;20217;-72
2021/08/02 08:05:45;;;;;;;4.15;2.25;;;19.40;68.50;;;;;;5043407;28;20032;-72
2021/08/02 08:08:30;;;;;;;4.13;1.95;;;19.50;67.60;;;;;;5043632;28;20044;-72
2021/08/02 08:11:14;;;;;;;3.00;1.92;;;19.70;67.70;;;;;;5047193;28;20032;-72
2021/08/02 08:13:58;;;;;;;3.25;2.08;;;19.80;68.40;;;;;;5047364;28;20068;-71
2021/08/02 08:16:42;;;;;;;5.10;2.50;;;19.90;68.20;;;;;;5046430;28;20028;-72
2021/08/02 08:19:27;;;;;;;3.05;1.98;;;19.90;67.90;;;;;;5047216;28;20112;-72
2021/08/02 08:22:11;;;;;;;4.78;2.30;;;20.00;67.60;;;;;;5047094;28;20044;-72
2021/08/02 08:24:55;;;;;;;8.20;2.00;;;20.00;67.40;;;;;;5046758;28;20090;-72
2021/08/02 08:27:39;;;;;;;4.38;2.00;;;20.10;66.80;;;;;;5047051;28;20132;-71
2021/08/02 08:30:24;;;;;;;4.85;2.10;;;20.20;66.30;;;;;;5046657;28;20196;-71
2021/08/02 08:33:08;;;;;;;3.78;1.90;;;20.20;66.60;;;;;;5047105;28;20332;-72
2021/08/02 08:35:56;;;;;;;5.03;2.00;;;20.30;65.80;;;;;;5046822;28;20036;-72
2021/08/02 08:38:40;;;;;;;5.60;2.00;;;20.30;65.30;;;;;;5046762;28;20076;-72
2021/08/02 08:41:24;;;;;;;3.97;2.28;;;20.40;65.70;;;;;;5047041;28;20256;-72
2021/08/02 08:44:08;;;;;;;3.50;2.00;;;20.50;66.30;;;;;;5046897;28;20048;-72
2021/08/02 08:46:56;;;;;;;3.95;2.20;;;20.50;65.00;;;;;;5046548;28;20097;-72
2021/08/02 08:49:40;;;;;;;3.97;2.30;;;20.60;65.90;;;;;;5046365;28;20041;-72
2021/08/02 08:52:24;;;;;;;4.45;2.40;;;20.70;64.80;;;;;;5046378;28;20139;-72
2021/08/02 08:55:10;;;;;;;5.88;2.40;;;20.80;64.70;;;;;;5046300;28;20076;-72
2021/08/02 08:57:55;;;;;;;3.88;2.30;;;20.80;64.20;;;;;;5046166;28;20033;-72
2021/08/02 09:00:39;;;;;;;4.20;2.08;;;20.80;64.70;;;;;;5046182;28;20405;-72
2021/08/02 09:03:23;;;;;;;4.07;2.20;;;20.90;65.90;;;;;;5046076;28;20026;-72
2021/08/02 09:06:08;;;;;;;4.75;2.17;;;21.10;65.00;;;;;;5046533;28;20051;-72
2021/08/02 09:08:52;;;;;;;5.13;2.35;;;21.20;65.60;;;;;;5046150;28;20045;-72
2021/08/02 09:11:36;;;;;;;5.30;2.05;;;21.30;65.80;;;;;;5045876;28;20091;-72
2021/08/02 09:14:20;;;;;;;3.10;1.85;;;21.30;64.30;;;;;;5046405;28;20023;-72
2021/08/02 09:17:05;;;;;;;5.65;1.90;;;21.30;64.40;;;;;;5046297;28;20047;-72
2021/08/02 09:19:49;;;;;;;4.10;2.40;;;21.30;64.40;;;;;;5046120;28;20032;-72
2021/08/02 09:22:35;;;;;;;4.70;2.13;;;21.40;64.90;;;;;;5044924;28;20076;-72
2021/08/02 09:25:21;;;;;;;6.57;2.30;;;21.50;64.40;;;;;;5045693;28;20080;-72
2021/08/02 09:28:12;;;;;;;5.47;2.50;;;21.60;63.30;;;;;;5045814;28;20260;-72
2021/08/02 09:31:01;;;;;;;8.07;2.70;;;21.80;64.30;;;;;;5045518;28;20075;-72
2021/08/02 09:33:47;;;;;;;8.00;2.50;;;21.80;64.20;;;;;;5030648;28;20344;-72
2021/08/02 09:36:38;;;;;;;4.63;2.90;;;21.80;64.30;;;;;;5045448;28;20029;-71
2021/08/02 09:39:27;;;;;;;;;;;21.90;63.90;;;;;;5045896;28;20039;-71
2021/08/02 09:42:11;;;;;;;4.88;2.60;;;21.90;63.60;;;;;;5052534;28;19938;-72
2021/08/02 09:45:00;;;;;;;6.20;2.63;;;21.90;62.80;;;;;;5044534;28;20091;-72
2021/08/02 09:47:48;;;;;;;5.35;2.67;;;21.90;63.40;;;;;;5045314;28;20039;-72
2021/08/02 09:50:33;;;;;;;5.13;2.67;;;21.90;62.10;;;;;;5044880;28;20168;-72
2021/08/02 09:53:20;;;;;;;7.03;2.90;;;21.90;63.50;;;;;;5045179;28;20052;-72
2021/08/02 09:56:10;;;;;;;4.50;2.97;;;21.90;64.80;;;;;;5045133;28;20095;-72
2021/08/02 09:58:54;;;;;;;4.75;2.67;;;21.90;65.80;;;;;;5045036;28;20044;-72
2021/08/02 10:01:39;;;;;;;5.18;2.55;;;21.90;65.00;;;;;;5044911;28;20067;-72
2021/08/02 10:04:24;;;;;;;7.43;2.60;;;22.00;64.80;;;;;;5044238;28;20033;-72
2021/08/02 10:07:09;;;;;;;7.80;2.50;;;22.10;64.90;;;;;;5045116;28;20028;-70
2021/08/02 10:09:53;;;;;;;5.28;2.30;;;22.20;64.50;;;;;;5044031;28;20087;-71
2021/08/02 10:12:44;;;;;;;3.28;2.15;;;22.30;63.90;;;;;;5043830;28;20101;-71
2021/08/02 10:15:29;;;;;;;4.22;2.45;;;22.30;63.50;;;;;;5044771;28;20071;-72
2021/08/02 10:18:16;;;;;;;6.43;2.95;;;22.30;63.30;;;;;;5044658;28;20085;-71
2021/08/02 10:21:10;;;;;;;4.15;2.38;;;22.40;63.60;;;;;;5044196;28;20025;-71
2021/08/02 10:24:04;;;;;;;4.85;2.30;;;22.60;63.80;;;;;;5044442;28;20052;-71
2021/08/02 10:26:59;;;;;;;5.00;2.13;;;22.70;62.00;;;;;;5044720;28;20359;-71
2021/08/02 10:29:43;;;;;;;4.38;1.85;;;22.80;61.40;;;;;;5044645;28;20041;-71
2021/08/02 10:32:28;;;;;;;3.03;1.83;;;22.80;60.30;;;;;;5043856;28;20056;-71
2021/08/02 10:35:12;;;;;;;2.83;1.85;;;22.80;58.90;;;;;;5044358;28;20029;-71
2021/08/02 10:38:01;;;;;;;3.15;2.05;;;22.90;60.30;;;;;;5044335;28;20083;-71
2021/08/02 10:40:56;;;;;;;3.80;1.90;;;23.00;60.60;;;;;;5043645;28;20029;-71
2021/08/02 10:43:40;;;;;;;5.80;2.05;;;23.10;61.60;;;;;;5043240;28;20410;-71
2021/08/02 10:46:28;;;;;;;4.00;2.45;;;23.10;60.40;;;;;;5044469;28;20048;-72
2021/08/02 10:49:14;;;;;;;5.88;2.40;;;23.20;60.30;;;;;;5044163;28;20032;-71
2021/08/02 10:51:59;;;;;;;3.78;2.10;;;23.10;60.20;;;;;;5043200;28;20071;-71
2021/08/02 10:54:43;;;;;;;5.05;2.00;;;22.90;60.10;;;;;;5043402;28;20068;-71
2021/08/02 10:57:28;;;;;;;6.93;1.92;;;22.80;60.00;;;;;;5043057;28;20091;-71
2021/08/02 11:00:21;;;;;;;12.07;3.08;;;22.80;60.40;;;;;;5044321;28;20072;-71
2021/08/02 11:03:07;;;;;;;9.88;3.97;;;22.50;62.40;;;;;;5044030;28;20037;-71
2021/08/02 11:05:52;;;;;;;6.85;2.85;;;22.30;63.20;;;;;;5043097;28;20101;-71
2021/08/02 11:08:55;;;;;;;10.93;3.17;;;21.80;63.80;;;;;;5043839;28;20348;-71
2021/08/02 11:11:40;;;;;;;8.90;2.90;;;21.50;65.50;;;;;;5043857;28;20033;-71
2021/08/02 11:14:24;;;;;;;6.45;3.00;;;21.40;66.50;;;;;;5044200;28;20033;-71
2021/08/02 11:17:14;;;;;;;10.32;2.83;;;21.30;67.40;;;;;;5044017;28;20036;-71
2021/08/02 11:20:03;;;;;;;4.93;2.92;;;21.20;68.80;;;;;;5043273;28;20076;-71
2021/08/02 11:22:54;;;;;;;5.13;2.50;;;21.30;69.30;;;;;;5043892;28;20347;-71
2021/08/02 11:25:38;;;;;;;6.95;2.78;;;21.30;69.10;;;;;;5044028;28;20049;-71
2021/08/02 11:28:22;;;;;;;3.67;2.25;;;21.30;68.20;;;;;;5043543;28;20028;-71
2021/08/02 11:31:09;;;;;;;6.05;2.40;;;21.30;69.50;;;;;;5028837;28;20063;-71
2021/08/02 11:33:53;;;;;;;5.22;2.20;;;21.70;69.70;;;;;;5043511;28;20036;-71
2021/08/02 11:36:37;;;;;;;4.78;2.88;;;21.60;68.40;;;;;;5043419;28;20028;-71
2021/08/02 11:39:21;;;;;;;4.80;2.50;;;21.80;70.60;;;;;;5043462;28;20028;-70
2021/08/02 11:42:10;;;;;;;6.22;3.20;;;21.90;68.50;;;;;;5043913;28;20036;-71
2021/08/02 11:44:56;;;;;;;4.88;2.58;;;21.90;69.30;;;;;;5045182;28;20055;-71
2021/08/02 11:47:44;;;;;;;5.40;2.83;;;22.00;69.20;;;;;;5032982;28;20079;-71
2021/08/02 11:50:31;;;;;;;5.28;2.55;;;22.10;68.10;;;;;;5032612;28;20079;-71
2021/08/02 11:53:15;;;;;;;4.85;2.78;;;22.20;68.10;;;;;;5047414;28;20048;-72
2021/08/02 11:56:00;;;;;;;4.72;2.40;;;22.30;68.40;;;;;;5046437;28;20071;-72
2021/08/02 11:58:45;;;;;;;7.18;2.70;;;22.30;69.20;;;;;;5047271;28;20148;-72
2021/08/02 12:01:29;;;;;;;2.75;1.90;;;22.40;69.60;;;;;;5047202;28;20071;-71
2021/08/02 12:04:14;;;;;;;4.13;1.85;;;22.40;69.00;;;;;;5047121;28;20036;-71
2021/08/02 12:06:59;;;;;;;2.88;1.77;;;22.50;67.90;;;;;;5046350;28;20363;-72
2021/08/02 12:09:44;;;;;;;3.80;1.80;;;22.50;65.20;;;;;;5047175;28;20217;-71
2021/08/02 12:12:28;;;;;;;3.95;1.90;;;22.60;66.50;;;;;;5032229;28;20032;-71
2021/08/02 12:15:14;;;;;;;3.40;1.90;;;22.60;66.50;;;;;;5047840;28;20028;-72
2021/08/02 12:17:59;;;;;;;2.60;1.30;;;22.60;64.70;;;;;;5047049;28;20052;-72
2021/08/02 12:20:43;;;;;;;3.33;1.50;;;22.40;60.70;;;;;;5047023;28;20351;-71
2021/08/02 12:23:27;;;;;;;2.90;1.70;;;22.50;62.10;;;;;;5045813;28;20052;-72
2021/08/02 12:26:21;;;;;;;3.10;1.77;;;22.40;63.90;;;;;;5046322;28;20351;-72
2021/08/02 12:29:05;;;;;;;3.97;1.88;;;22.60;64.80;;;;;;5046739;28;20132;-71
2021/08/02 12:32:00;;;;;;;3.38;1.63;;;22.50;63.50;;;;;;5046004;28;20033;-72
2021/08/02 12:34:44;;;;;;;3.25;1.70;;;22.50;61.50;;;;;;5045772;28;20041;-72
2021/08/02 12:37:28;;;;;;;4.13;1.92;;;22.60;61.30;;;;;;5046800;28;20028;-72
2021/08/02 12:40:14;;;;;;;3.03;1.90;;;22.70;62.70;;;;;;5046577;28;20044;-71
2021/08/02 12:42:58;;;;;;;3.60;1.65;;;22.80;63.40;;;;;;5046522;28;20034;-72
2021/08/02 12:45:43;;;;;;;4.13;1.88;;;22.80;62.20;;;;;;5046390;28;20041;-72
2021/08/02 12:48:27;;;;;;;6.35;1.70;;;22.90;60.80;;;;;;5046160;28;20352;-71
2021/08/02 12:51:13;;;;;;;5.63;1.73;;;23.00;61.70;;;;;;5046769;28;20040;-71
2021/08/02 12:53:57;;;;;;;2.38;1.40;;;23.00;58.30;;;;;;5031818;28;20041;-72
2021/08/02 12:56:41;;;;;;;6.00;1.42;;;23.10;58.60;;;;;;5045253;28;20072;-72
2021/08/02 12:59:26;;;;;;;3.55;1.40;;;23.20;57.50;;;;;;5046633;28;20052;-71
2021/08/02 13:02:10;;;;;;;4.43;1.35;;;23.20;57.40;;;;;;5046116;28;20083;-72
2021/08/02 13:04:55;;;;;;;3.67;1.00;;;23.30;58.00;;;;;;5046445;28;20048;-71
2021/08/02 13:07:39;;;;;;;1.92;1.10;;;23.30;56.90;;;;;;5046441;28;20197;-72
2021/08/02 13:10:27;;;;;;;2.70;1.23;;;23.40;54.60;;;;;;5046117;28;20036;-72
2021/08/02 13:13:11;;;;;;;2.55;1.50;;;23.20;52.40;;;;;;5046064;28;20031;-71
2021/08/02 13:15:56;;;;;;;2.50;1.20;;;23.30;52.00;;;;;;5046042;28;20037;-72
2021/08/02 13:18:45;;;;;;;3.22;1.00;;;23.30;53.30;;;;;;5045900;28;20355;-71
2021/08/02 13:21:29;;;;;;;3.72;1.20;;;23.40;54.30;;;;;;5045766;28;20028;-71
2021/08/02 13:27:17;;;;;;;4.55;1.60;;;23.40;54.90;;;;;;5045674;28;20036;-70
2021/08/02 13:30:02;;;;;;;3.78;1.20;;;23.50;55.70;;;;;;5046108;28;20059;-71
2021/08/02 13:32:46;;;;;;;2.75;1.10;;;23.50;53.60;;;;;;5045675;28;20036;-71
2021/08/02 13:35:30;;;;;;;4.18;1.10;;;23.60;55.30;;;;;;5046009;28;20371;-71
2021/08/02 13:38:14;;;;;;;5.03;1.48;;;23.50;51.30;;;;;;5045951;28;20028;-71
2021/08/02 13:40:59;;;;;;;3.65;1.50;;;23.50;51.60;;;;;;5045346;28;20072;-71
2021/08/02 13:43:43;;;;;;;3.25;1.40;;;23.60;53.20;;;;;;5045684;28;20043;-71
2021/08/02 13:46:29;;;;;;;3.72;1.20;;;23.60;54.60;;;;;;5045401;28;20217;-71
2021/08/02 13:49:13;;;;;;;2.13;1.10;;;23.70;55.00;;;;;;5044321;28;20097;-71
2021/08/02 13:51:58;;;;;;;2.25;1.42;;;23.70;54.30;;;;;;5045114;28;20276;-71
2021/08/02 13:54:42;;;;;;;1.65;1.10;;;23.70;53.10;;;;;;5045070;28;20075;-71
2021/08/02 13:57:26;;;;;;;2.58;1.30;;;23.60;52.00;;;;;;5045017;28;20171;-70
2021/08/02 14:00:11;;;;;;;2.05;1.25;;;23.60;51.40;;;;;;5045501;28;20112;-71
2021/08/02 14:02:55;;;;;;;2.17;1.08;;;23.40;52.40;;;;;;5045071;28;20037;-71
2021/08/02 14:05:39;;;;;;;1.88;1.40;;;23.40;54.10;;;;;;5045085;28;20217;-71
2021/08/02 14:08:24;;;;;;;4.97;1.55;;;23.50;52.50;;;;;;5045102;28;20052;-71
2021/08/02 14:11:29;;;;;;;2.58;1.35;;;23.50;52.90;;;;;;5044659;28;20052;-71
2021/08/02 14:14:14;;;;;;;2.50;1.17;;;23.60;53.40;;;;;;5044721;28;20256;-71
2021/08/02 14:17:03;;;;;;;4.43;1.35;;;23.70;52.40;;;;;;5043700;28;20368;-71
2021/08/02 14:19:48;;;;;;;5.18;1.60;;;23.70;53.20;;;;;;5044964;28;20348;-71
2021/08/02 14:22:32;;;;;;;2.50;1.40;;;23.80;54.20;;;;;;5030035;28;20352;-71
2021/08/02 14:25:17;;;;;;;4.95;1.80;;;23.80;52.80;;;;;;5029561;28;20079;-71
2021/08/02 14:28:03;;;;;;;3.70;1.52;;;23.80;55.00;;;;;;5044598;28;20063;-71
2021/08/02 14:30:50;;;;;;;4.50;1.70;;;23.90;54.00;;;;;;5029925;28;20024;-71